Time;durP1;ratioP1;P1;durP2;ratioP2;P2;SDS_P1;SDS_P2;PMS_P1;PMS_P2;Temp;Humidity;BMP_temperature;BMP_pressure;BME280_temperature;BME280_humidity;BME280_pressure;Samples;Min_cycle;Max_cycle;Signal;HPM_P1;HPM_P2
2023/03/04 00:00:18;;;;;;;36.30;17.10;;;;;;;17.98;27.89;99481.08;108241;1254;61212;-66
2023/03/04 00:06:07;;;;;;;44.10;17.90;;;;;;;17.42;28.53;99476.84;88558;1283;968963;-63
2023/03/04 00:08:36;;;;;;;38.20;17.60;;;;;;;17.58;28.48;99473.66;107008;1264;73256;-66
2023/03/04 00:11:04;;;;;;;42.80;19.80;;;;;;;17.58;28.38;99471.32;106982;1270;60369;-65
2023/03/04 00:13:31;;;;;;;44.90;18.70;;;;;;;17.59;28.33;99468.97;107131;1271;60291;-66
2023/03/04 00:15:58;;;;;;;39.40;18.20;;;;;;;17.61;28.54;99464.39;107092;1274;73263;-65
2023/03/04 00:18:26;;;;;;;42.50;19.40;;;;;;;18.10;27.83;99461.14;107167;1270;70352;-64
2023/03/04 00:20:54;;;;;;;43.80;17.80;;;;;;;17.94;27.87;99457.42;107094;1274;72720;-66
2023/03/04 00:23:20;;;;;;;43.00;19.80;;;;;;;17.63;28.30;99453.02;107054;1276;62126;-65
2023/03/04 00:25:48;;;;;;;43.30;20.10;;;;;;;17.88;28.12;99449.71;106950;1270;61642;-62
2023/03/04 00:28:16;;;;;;;39.90;18.00;;;;;;;16.94;29.15;99452.20;107012;1274;72876;-64
2023/03/04 00:30:44;;;;;;;42.00;19.40;;;;;;;16.83;29.26;99451.38;106915;1270;70675;-66
2023/03/04 00:33:12;;;;;;;46.10;21.80;;;;;;;16.93;29.04;99450.17;107088;1271;73000;-67
2023/03/04 00:35:39;;;;;;;44.10;19.90;;;;;;;16.93;29.05;99445.73;107021;1270;60328;-66
2023/03/04 00:38:06;;;;;;;45.50;20.90;;;;;;;16.83;29.12;99447.16;106873;1276;61310;-65
2023/03/04 00:40:32;;;;;;;44.90;21.00;;;;;;;16.44;29.85;99448.23;107070;1276;74373;-64
2023/03/04 00:43:00;;;;;;;42.30;20.20;;;;;;;16.06;30.21;99450.90;107163;1270;69495;-65
2023/03/04 00:45:27;;;;;;;48.00;20.80;;;;;;;15.76;30.68;99446.45;107056;1270;73801;-66
2023/03/04 00:47:53;;;;;;;48.50;19.20;;;;;;;15.50;31.07;99440.28;106984;1270;62253;-65
2023/03/04 00:50:20;;;;;;;48.20;22.20;;;;;;;15.89;30.69;99446.06;107132;1270;60363;-68
2023/03/04 00:52:47;;;;;;;43.80;20.10;;;;;;;16.06;30.39;99448.10;107070;1271;74797;-66
2023/03/04 00:55:13;;;;;;;41.50;18.40;;;;;;;15.74;30.97;99444.81;106939;1270;71412;-65
2023/03/04 00:57:41;;;;;;;46.60;19.90;;;;;;;15.96;30.66;99441.88;106957;1270;73837;-66
2023/03/04 01:00:10;;;;;;;42.00;18.80;;;;;;;15.92;30.62;99440.71;107057;1270;62198;-65
2023/03/04 01:02:37;;;;;;;39.40;19.40;;;;;;;16.03;30.59;99438.89;107069;1270;60384;-66
2023/03/04 01:05:06;;;;;;;40.70;17.90;;;;;;;15.99;30.67;99437.45;106968;1273;73878;-66
2023/03/04 01:07:32;;;;;;;44.30;18.90;;;;;;;15.86;30.99;99435.48;107124;1274;70614;-63
2023/03/04 01:10:08;;;;;;;39.60;18.60;;;;;;;16.07;30.73;99430.65;107029;1270;72034;-65
2023/03/04 01:12:36;;;;;;;38.90;17.10;;;;;;;16.40;30.35;99428.49;107013;1274;61287;-65
2023/03/04 01:15:04;;;;;;;42.10;19.20;;;;;;;16.36;30.27;99421.13;107029;1270;60351;-64
2023/03/04 01:17:35;;;;;;;40.10;19.20;;;;;;;16.49;30.10;99418.43;106823;1270;73762;-65
2023/03/04 01:20:05;;;;;;;46.30;20.20;;;;;;;16.16;30.60;99419.23;107050;1275;70693;-63
2023/03/04 01:22:32;;;;;;;63.70;24.20;;;;;;;16.37;30.25;99415.58;107104;1276;72901;-66
2023/03/04 01:24:59;;;;;;;55.10;23.00;;;;;;;16.53;30.09;99410.55;106802;1273;62234;-63
2023/03/04 01:27:25;;;;;;;53.10;20.80;;;;;;;16.55;29.86;99411.23;106920;1270;61510;-65
2023/03/04 01:29:52;;;;;;;52.00;20.50;;;;;;;16.31;29.95;99411.58;106878;1270;73992;-66
2023/03/04 01:32:19;;;;;;;50.20;19.10;;;;;;;16.82;29.57;99406.80;107016;1270;71343;-64
2023/03/04 01:34:48;;;;;;;44.60;19.70;;;;;;;17.15;28.99;99398.84;107002;1270;72772;-66
2023/03/04 01:37:15;;;;;;;40.20;18.40;;;;;;;17.37;28.61;99395.55;106991;1270;62452;-63
2023/03/04 01:39:42;;;;;;;41.60;16.90;;;;;;;17.11;29.05;99392.40;106960;1270;61457;-65
2023/03/04 01:42:16;;;;;;;39.50;18.00;;;;;;;17.15;28.91;99386.43;106672;1270;74890;-65
2023/03/04 01:44:43;;;;;;;39.10;18.70;;;;;;;17.06;29.07;99383.55;106822;1270;71959;-65
2023/03/04 01:47:18;;;;;;;39.30;17.60;;;;;;;17.25;28.87;99382.13;106834;1276;73891;-66
2023/03/04 01:49:47;;;;;;;38.60;17.90;;;;;;;17.12;28.90;99384.92;107040;1270;62411;-65
2023/03/04 01:52:15;;;;;;;41.90;17.00;;;;;;;17.17;28.72;99382.17;106833;1270;60491;-66
2023/03/04 01:54:42;;;;;;;40.50;18.50;;;;;;;16.87;29.10;99382.14;106832;1270;74878;-65
2023/03/04 01:57:27;;;;;;;31.50;15.90;;;;;;;16.76;29.08;99379.26;106790;1274;71849;-65
2023/03/04 02:00:24;;;;;;;35.00;16.40;;;;;;;16.82;29.14;99374.05;106999;1272;72948;-65
2023/03/04 02:02:57;;;;;;;42.00;18.60;;;;;;;16.85;29.26;99370.21;106766;1273;61909;-66
2023/03/04 02:05:24;;;;;;;33.30;17.00;;;;;;;16.83;29.21;99367.94;106863;1277;61056;-65
2023/03/04 02:07:51;;;;;;;39.10;17.50;;;;;;;16.93;29.19;99363.26;106807;1273;74740;-66
2023/03/04 02:10:22;;;;;;;39.40;17.40;;;;;;;17.02;28.89;99358.15;106903;1271;71329;-66
2023/03/04 02:12:50;;;;;;;39.20;17.90;;;;;;;16.94;28.98;99358.93;106738;1273;73978;-64
2023/03/04 02:15:16;;;;;;;37.00;18.00;;;;;;;16.59;29.39;99363.98;106962;1272;61174;-66
2023/03/04 02:17:45;;;;;;;50.60;20.40;;;;;;;16.70;29.37;99364.29;106818;1271;60486;-64
2023/03/04 02:20:21;;;;;;;36.70;16.70;;;;;;;16.71;29.36;99367.23;107017;1271;74691;-65
2023/03/04 02:23:21;;;;;;;45.20;20.20;;;;;;;16.57;29.55;99363.27;106940;1271;72003;-65
2023/03/04 02:26:12;;;;;;;36.10;17.30;;;;;;;16.43;29.73;99358.27;106667;1273;73720;-64
2023/03/04 02:28:40;;;;;;;40.00;18.80;;;;;;;16.51;29.66;99356.95;106796;1270;60474;-64
2023/03/04 02:31:30;;;;;;;42.10;20.00;;;;;;;16.57;29.58;99355.70;106870;1276;60327;-64
2023/03/04 02:33:59;;;;;;;42.30;18.60;;;;;;;16.43;29.70;99353.81;106918;1270;74944;-64
2023/03/04 02:36:26;;;;;;;39.90;17.70;;;;;;;16.13;30.20;99353.19;107102;1270;70494;-64
2023/03/04 02:38:53;;;;;;;46.30;20.60;;;;;;;16.29;30.17;99347.81;106871;1270;72090;-64
2023/03/04 02:41:24;;;;;;;51.90;21.30;;;;;;;15.92;30.59;99342.83;107035;1273;62161;-66
2023/03/04 02:43:56;;;;;;;42.30;19.10;;;;;;;15.87;30.79;99342.00;106927;1270;61315;-67
2023/03/04 02:46:24;;;;;;;50.40;22.00;;;;;;;16.10;30.44;99340.48;106895;1270;74448;-64
2023/03/04 02:48:51;;;;;;;41.10;19.80;;;;;;;16.22;30.26;99340.36;107033;1270;70359;-66
2023/03/04 02:51:17;;;;;;;48.60;21.90;;;;;;;15.62;31.16;99336.48;106846;1270;72372;-66
2023/03/04 02:53:45;;;;;;;54.20;23.30;;;;;;;15.90;31.00;99324.60;107085;1270;62148;-64
2023/03/04 02:56:12;;;;;;;51.00;22.50;;;;;;;15.87;31.18;99306.57;106849;1270;60359;-65
2023/03/04 02:58:40;;;;;;;59.50;25.00;;;;;;;16.07;31.01;99297.50;107078;1270;72762;-65
2023/03/04 03:01:09;;;;;;;53.80;22.40;;;;;;;16.23;30.79;99297.27;107039;1270;71556;-64
2023/03/04 03:03:37;;;;;;;57.40;25.20;;;;;;;16.30;30.64;99304.81;106818;1276;71764;-65
2023/03/04 03:06:05;;;;;;;52.70;24.80;;;;;;;16.67;30.12;99302.80;107015;1275;60322;-65
2023/03/04 03:08:36;;;;;;;51.00;23.00;;;;;;;16.69;30.16;99297.73;106856;1271;60272;-66
2023/03/04 03:11:06;;;;;;;56.10;25.20;;;;;;;16.83;29.94;99302.73;107057;1270;75082;-65
2023/03/04 03:13:35;;;;;;;64.70;26.50;;;;;;;16.80;29.91;99300.60;107076;1270;70966;-66
2023/03/04 03:16:03;;;;;;;56.00;24.40;;;;;;;16.32;30.55;99307.33;107038;1271;72937;-65
2023/03/04 03:18:33;;;;;;;67.90;28.50;;;;;;;16.49;30.46;99299.89;107083;1276;62430;-66
2023/03/04 03:20:59;;;;;;;63.60;27.30;;;;;;;16.66;30.37;99293.65;107102;1271;61385;-65
2023/03/04 03:23:29;;;;;;;64.40;27.20;;;;;;;16.15;31.08;99289.98;107123;1270;73903;-66
2023/03/04 03:25:57;;;;;;;66.00;27.70;;;;;;;16.32;30.94;99288.23;107074;1270;71176;-66
2023/03/04 03:28:28;;;;;;;61.10;25.80;;;;;;;16.48;30.75;99285.42;106998;1271;73581;-66
2023/03/04 03:30:56;;;;;;;66.50;27.10;;;;;;;16.88;30.27;99284.98;107020;1270;62159;-64
2023/03/04 03:33:22;;;;;;;71.20;29.70;;;;;;;16.70;30.48;99282.05;107003;1271;61756;-65
2023/03/04 03:35:49;;;;;;;67.80;27.90;;;;;;;16.39;30.88;99283.23;107048;1270;73119;-66
2023/03/04 03:38:16;;;;;;;72.80;29.20;;;;;;;16.74;30.47;99277.28;107040;1270;71418;-65
2023/03/04 03:40:43;;;;;;;68.10;29.70;;;;;;;16.17;31.16;99280.81;107060;1270;72831;-64
2023/03/04 03:43:10;;;;;;;67.70;29.10;;;;;;;15.96;31.47;99273.55;107020;1270;61505;-66
2023/03/04 03:45:37;;;;;;;69.30;30.00;;;;;;;16.22;31.03;99277.52;107040;1270;60354;-65
2023/03/04 03:48:06;;;;;;;64.30;27.70;;;;;;;16.10;31.31;99278.54;107064;1270;72791;-66
2023/03/04 03:50:32;;;;;;;74.40;31.80;;;;;;;15.89;31.64;99275.60;107039;1270;71425;-66
2023/03/04 03:52:59;;;;;;;82.10;32.20;;;;;;;15.95;31.57;99276.23;107063;1275;71787;-66
2023/03/04 03:55:27;;;;;;;76.20;29.80;;;;;;;15.91;31.73;99269.83;107070;1270;61909;-66
2023/03/04 03:57:55;;;;;;;69.30;29.50;;;;;;;16.11;31.30;99271.36;106993;1270;61160;-65
2023/03/04 04:00:22;;;;;;;65.90;28.20;;;;;;;16.11;31.43;99263.94;107066;1270;74145;-66
2023/03/04 04:02:49;;;;;;;71.20;31.50;;;;;;;16.27;31.11;99257.05;107044;1270;70554;-65
2023/03/04 04:05:17;;;;;;;73.10;29.20;;;;;;;16.78;30.48;99254.33;107011;1276;73849;-63
2023/03/04 04:07:44;;;;;;;71.40;29.10;;;;;;;16.64;30.65;99251.11;107009;1270;62624;-64
2023/03/04 04:10:11;;;;;;;80.70;32.20;;;;;;;16.73;30.44;99247.08;107029;1271;61229;-66
2023/03/04 04:12:38;;;;;;;65.80;28.40;;;;;;;16.58;30.74;99241.97;106969;1270;74009;-66
2023/03/04 04:15:10;;;;;;;81.40;33.20;;;;;;;16.69;30.73;99242.77;106997;1270;71630;-64
2023/03/04 04:17:37;;;;;;;72.40;29.70;;;;;;;16.59;30.77;99239.39;107047;1276;73803;-64
2023/03/04 04:20:06;;;;;;;64.20;27.70;;;;;;;16.06;31.54;99233.67;107054;1270;60569;-65
2023/03/04 04:22:34;;;;;;;81.30;32.10;;;;;;;16.05;31.53;99233.03;107096;1271;60391;-66
2023/03/04 04:25:00;;;;;;;77.10;31.90;;;;;;;15.89;31.87;99227.11;107077;1270;75084;-65
2023/03/04 04:27:29;;;;;;;75.20;31.20;;;;;;;15.68;32.12;99223.85;107021;1270;69586;-66
2023/03/04 04:29:55;;;;;;;77.20;32.00;;;;;;;15.84;31.94;99226.41;107006;1271;72505;-64
2023/03/04 04:32:22;;;;;;;73.20;30.80;;;;;;;15.67;32.31;99225.55;107067;1270;60584;-64
2023/03/04 04:34:49;;;;;;;79.80;32.10;;;;;;;15.92;31.96;99218.75;106741;1270;61271;-66
2023/03/04 04:37:16;;;;;;;75.00;30.30;;;;;;;16.39;31.31;99211.39;107032;1270;73414;-65
2023/03/04 04:39:42;;;;;;;75.20;30.30;;;;;;;16.18;31.66;99207.23;106953;1270;172643;-65
2023/03/04 04:43:48;;;;;;;84.20;31.70;;;;;;;12.27;38.35;99202.20;104917;1289;601096;-66
2023/03/04 04:46:16;;;;;;;86.30;33.60;;;;;;;14.50;34.25;99188.06;107338;1269;62334;-66
2023/03/04 04:48:45;;;;;;;73.70;30.90;;;;;;;14.94;33.72;99191.03;107439;1265;61483;-66
2023/03/04 04:51:13;;;;;;;75.00;30.80;;;;;;;15.31;33.01;99189.66;107372;1267;73407;-64
2023/03/04 04:53:42;;;;;;;84.10;32.40;;;;;;;15.54;32.60;99183.26;107339;1266;70071;-65
2023/03/04 04:56:15;;;;;;;74.50;30.10;;;;;;;15.61;32.45;99175.90;107289;1266;73900;-65
2023/03/04 04:58:43;;;;;;;79.70;33.70;;;;;;;15.47;32.58;99174.59;107184;1262;61622;-66
2023/03/04 05:01:12;;;;;;;74.80;29.30;;;;;;;15.95;31.95;99169.67;107944;1256;61265;-66
2023/03/04 05:03:40;;;;;;;74.00;29.20;;;;;;;15.84;32.10;99170.69;108301;1251;72337;-66
2023/03/04 05:06:10;;;;;;;79.80;33.20;;;;;;;15.97;31.67;99167.11;108186;1253;71652;-66
2023/03/04 05:08:38;;;;;;;72.50;28.50;;;;;;;16.10;31.58;99176.70;108181;1254;73443;-66
2023/03/04 05:11:07;;;;;;;77.80;30.80;;;;;;;15.95;31.75;99171.47;108181;1254;61865;-67
2023/03/04 05:13:38;;;;;;;73.10;28.50;;;;;;;16.26;31.27;99166.30;108201;1253;61230;-66
2023/03/04 05:16:09;;;;;;;68.60;29.50;;;;;;;16.16;31.44;99160.53;108177;1253;73045;-66
2023/03/04 05:18:37;;;;;;;77.00;32.60;;;;;;;16.39;31.08;99149.67;108221;1253;71284;-67
2023/03/04 05:21:08;;;;;;;84.80;34.10;;;;;;;16.54;30.95;99142.72;108200;1254;73595;-66
2023/03/04 05:23:41;;;;;;;70.20;28.60;;;;;;;16.56;31.03;99142.77;108219;1253;62074;-66
2023/03/04 05:26:11;;;;;;;77.00;31.50;;;;;;;16.92;30.49;99139.44;108211;1252;60442;-66
2023/03/04 05:28:40;;;;;;;70.70;30.50;;;;;;;16.81;30.55;99137.82;108209;1254;74533;-67
2023/03/04 05:31:08;;;;;;;70.90;31.60;;;;;;;16.46;30.95;99131.64;108193;1253;70269;-66
2023/03/04 05:33:37;;;;;;;68.20;28.30;;;;;;;16.40;31.13;99131.02;108215;1254;73485;-65
2023/03/04 05:36:06;;;;;;;74.00;30.10;;;;;;;16.38;31.27;99125.73;108179;1256;61282;-66
2023/03/04 05:38:35;;;;;;;80.90;33.10;;;;;;;16.52;31.01;99114.66;108191;1254;59598;-67
2023/03/04 05:41:05;;;;;;;70.60;29.80;;;;;;;16.62;30.80;99105.77;108223;1254;73179;-67
2023/03/04 05:43:37;;;;;;;70.40;30.10;;;;;;;16.53;30.94;99107.71;108232;1252;71259;-68
2023/03/04 05:46:05;;;;;;;85.80;35.00;;;;;;;16.51;30.98;99106.05;108172;1254;73865;-66
2023/03/04 05:48:33;;;;;;;82.90;34.90;;;;;;;16.13;31.51;99108.14;108162;1253;62430;-66
2023/03/04 05:51:01;;;;;;;80.40;32.40;;;;;;;16.34;31.28;99113.27;108188;1253;60255;-66
2023/03/04 05:53:29;;;;;;;81.70;33.20;;;;;;;16.49;31.09;99108.05;108185;1254;74056;-66
2023/03/04 05:55:58;;;;;;;72.50;29.60;;;;;;;16.34;31.21;99113.09;108159;1254;71635;-67
2023/03/04 05:58:27;;;;;;;77.90;33.30;;;;;;;15.94;31.60;99107.08;108212;1254;72349;-66
2023/03/04 06:00:59;;;;;;;69.40;26.00;;;;;;;16.08;31.55;99109.19;108168;1254;60547;-66
2023/03/04 06:03:27;;;;;;;76.90;32.20;;;;;;;15.51;32.21;99103.88;108236;1253;59465;-67
2023/03/04 06:05:56;;;;;;;78.20;31.30;;;;;;;16.07;31.64;99100.08;108164;1254;74272;-66
2023/03/04 06:08:24;;;;;;;71.50;28.70;;;;;;;16.75;30.79;99097.52;108174;1257;71251;-66
2023/03/04 06:10:54;;;;;;;65.10;26.80;;;;;;;16.58;30.80;99097.79;108185;1254;73792;-67
2023/03/04 06:13:25;;;;;;;68.20;28.30;;;;;;;16.77;30.66;99089.56;108212;1254;62232;-67
2023/03/04 06:15:56;;;;;;;62.50;24.50;;;;;;;16.95;30.47;99081.58;108214;1254;61310;-67
2023/03/04 06:18:25;;;;;;;64.40;27.10;;;;;;;17.07;29.98;99077.58;108174;1253;74251;-66
2023/03/04 06:20:59;;;;;;;63.10;26.50;;;;;;;17.27;29.62;99083.27;108213;1254;71239;-67
2023/03/04 06:23:28;;;;;;;58.30;22.90;;;;;;;17.18;29.96;99077.40;108155;1253;73660;-66
2023/03/04 06:25:59;;;;;;;61.20;25.20;;;;;;;17.12;29.85;99069.78;108248;1254;60629;-66
2023/03/04 06:28:28;;;;;;;56.50;23.60;;;;;;;17.53;29.36;99075.06;108292;1254;60470;-67
2023/03/04 06:30:56;;;;;;;64.70;24.50;;;;;;;17.46;29.26;99066.79;108206;1257;73249;-67
2023/03/04 06:33:31;;;;;;;75.50;20.40;;;;;;;17.28;29.23;99072.73;108174;1254;69771;-67
2023/03/04 06:36:00;;;;;;;65.20;25.80;;;;;;;17.32;29.35;99065.95;108146;1254;72902;-67
2023/03/04 06:38:29;;;;;;;61.20;25.90;;;;;;;17.34;29.27;99074.50;108218;1253;61873;-66
2023/03/04 06:41:05;;;;;;;62.00;25.40;;;;;;;17.69;28.73;99076.06;108235;1253;59672;-67
2023/03/04 06:43:33;;;;;;;64.00;25.70;;;;;;;17.09;29.28;99070.38;108248;1254;74179;-67
2023/03/04 06:46:06;;;;;;;67.40;25.60;;;;;;;17.28;29.16;99068.06;108231;1253;71094;-67
2023/03/04 06:48:35;;;;;;;58.70;22.10;;;;;;;16.66;29.89;99059.75;108221;1256;73367;-65
2023/03/04 06:51:08;;;;;;;65.80;25.60;;;;;;;16.23;30.41;99063.62;108184;1254;61220;-67
2023/03/04 06:53:38;;;;;;;66.80;26.30;;;;;;;16.86;29.71;99052.86;108192;1254;61308;-65
2023/03/04 06:56:16;;;;;;;65.30;24.90;;;;;;;17.65;29.00;99053.54;108200;1257;74762;-65
2023/03/04 06:58:45;;;;;;;58.70;23.30;;;;;;;17.21;29.14;99045.22;108141;1254;70562;-66
2023/03/04 07:01:22;;;;;;;56.60;23.30;;;;;;;17.09;29.27;99039.65;108228;1254;73641;-67
2023/03/04 07:03:52;;;;;;;57.70;23.40;;;;;;;17.36;29.07;99030.38;108145;1254;62446;-68
2023/03/04 07:06:23;;;;;;;70.30;26.10;;;;;;;17.56;28.79;99035.42;108200;1254;60329;-67
2023/03/04 07:08:55;;;;;;;71.50;28.10;;;;;;;17.72;28.50;99029.36;108230;1254;74435;-65
2023/03/04 07:11:26;;;;;;;64.60;25.10;;;;;;;17.87;28.35;99030.36;108223;1254;70580;-66
2023/03/04 07:13:54;;;;;;;65.50;25.10;;;;;;;18.10;27.99;99027.14;108194;1254;73662;-65
2023/03/04 07:16:22;;;;;;;63.10;23.80;;;;;;;17.86;28.19;99019.15;108170;1254;62398;-67
2023/03/04 07:18:51;;;;;;;64.70;27.20;;;;;;;17.25;28.84;99018.82;108128;1258;60201;-67
2023/03/04 07:21:24;;;;;;;59.50;22.60;;;;;;;17.41;28.81;99011.52;108238;1256;74054;-64
2023/03/04 07:23:52;;;;;;;64.50;26.60;;;;;;;17.67;28.50;99006.12;108198;1253;71534;-65
2023/03/04 07:26:21;;;;;;;75.50;26.80;;;;;;;18.69;27.23;99005.71;108122;1253;73641;-66
2023/03/04 07:28:51;;;;;;;64.60;25.50;;;;;;;18.85;26.95;98992.39;108132;1254;61980;-68
2023/03/04 07:31:27;;;;;;;60.30;26.80;;;;;;;19.10;26.71;98980.90;108094;1254;61426;-68
2023/03/04 07:33:56;;;;;;;61.10;24.00;;;;;;;19.26;26.42;98979.48;108325;1253;71152;-67
2023/03/04 07:36:25;;;;;;;56.70;24.10;;;;;;;19.51;26.31;98980.42;108228;1254;69955;-66
2023/03/04 07:38:54;;;;;;;56.00;24.50;;;;;;;20.05;25.68;98974.81;108254;1254;72254;-66
2023/03/04 07:41:24;;;;;;;63.80;26.60;;;;;;;20.13;25.44;98974.92;108255;1254;60193;-67
2023/03/04 07:43:55;;;;;;;61.70;25.80;;;;;;;20.31;25.27;98971.27;108288;1254;59888;-67
2023/03/04 07:46:24;;;;;;;57.20;22.90;;;;;;;20.84;24.78;98973.19;108161;1254;71960;-68
2023/03/04 07:48:54;;;;;;;65.30;26.20;;;;;;;20.67;24.72;98969.44;108150;1254;70299;-67
2023/03/04 07:51:24;;;;;;;58.00;26.00;;;;;;;20.69;24.76;98970.48;108161;1254;71975;-67
2023/03/04 07:53:55;;;;;;;62.30;25.70;;;;;;;20.52;24.80;98968.90;108136;1254;59580;-67
2023/03/04 07:56:26;;;;;;;54.20;24.50;;;;;;;20.85;24.55;98972.50;108083;1254;61138;-66
2023/03/04 07:58:55;;;;;;;59.40;24.70;;;;;;;20.45;24.78;98964.45;108074;1258;74316;-67
2023/03/04 08:01:28;;;;;;;64.90;27.70;;;;;;;20.13;25.20;98964.77;108148;1254;68645;-66
2023/03/04 08:03:58;;;;;;;52.30;24.00;;;;;;;20.48;24.97;98965.01;108097;1254;71825;-66
2023/03/04 08:06:27;;;;;;;64.70;28.50;;;;;;;20.48;24.93;98967.34;108282;1254;60805;-66
2023/03/04 08:09:05;;;;;;;60.70;26.40;;;;;;;20.74;24.56;98966.50;108149;1254;61790;-66
2023/03/04 08:11:36;;;;;;;55.80;23.90;;;;;;;20.48;24.93;98958.77;108093;1254;73713;-66
2023/03/04 08:14:06;;;;;;;65.20;28.60;;;;;;;20.60;24.84;98962.48;108165;1254;70988;-67
2023/03/04 08:16:34;;;;;;;70.50;22.20;;;;;;;20.94;24.49;98958.98;108188;1254;73476;-66
2023/03/04 08:19:03;;;;;;;66.90;28.30;;;;;;;19.12;26.35;98954.43;108120;1254;60936;-67
2023/03/04 08:21:31;;;;;;;78.50;27.60;;;;;;;20.04;25.48;98953.33;108087;1253;59947;-67
2023/03/04 08:24:01;;;;;;;61.50;26.30;;;;;;;20.26;25.25;98948.98;108136;1254;73406;-66
2023/03/04 08:26:32;;;;;;;73.80;33.50;;;;;;;20.28;25.14;98948.60;108161;1254;69529;-67
2023/03/04 08:29:01;;;;;;;70.30;29.60;;;;;;;20.00;25.35;98950.39;108120;1254;73492;-67
2023/03/04 08:31:30;;;;;;;65.60;29.40;;;;;;;20.11;25.37;98949.29;108197;1254;61247;-67
2023/03/04 08:34:02;;;;;;;66.00;28.70;;;;;;;20.20;25.14;98946.89;108170;1253;59628;-67
2023/03/04 08:36:30;;;;;;;63.80;27.40;;;;;;;19.83;25.53;98943.38;108163;1254;72575;-66
2023/03/04 08:38:58;;;;;;;69.30;28.70;;;;;;;19.25;26.19;98942.52;108146;1254;69785;-68
2023/03/04 08:41:26;;;;;;;74.20;28.20;;;;;;;19.78;25.74;98943.17;108114;1254;73749;-65
2023/03/04 08:43:58;;;;;;;70.00;28.20;;;;;;;19.75;25.67;98942.18;108155;1254;61976;-67
2023/03/04 08:46:26;;;;;;;74.60;30.80;;;;;;;19.71;25.60;98944.20;108158;1254;61237;-66
2023/03/04 08:48:58;;;;;;;71.30;29.60;;;;;;;19.66;25.63;98939.16;108045;1254;73284;-66
2023/03/04 08:51:26;;;;;;;64.80;29.00;;;;;;;19.35;25.92;98937.88;108171;1254;71249;-66
2023/03/04 08:53:54;;;;;;;72.80;30.00;;;;;;;19.36;25.93;98936.59;108163;1254;73654;-65
2023/03/04 08:56:22;;;;;;;66.70;28.50;;;;;;;19.83;25.50;98936.13;108096;1254;60878;-67
2023/03/04 08:58:50;;;;;;;71.80;30.00;;;;;;;20.27;24.94;98937.46;108214;1254;61497;-66
2023/03/04 09:01:20;;;;;;;78.80;28.30;;;;;;;19.99;24.99;98933.70;108141;1254;73659;-67
2023/03/04 09:03:48;;;;;;;70.90;28.30;;;;;;;19.44;25.43;98937.55;108130;1254;71249;-67
2023/03/04 09:06:18;;;;;;;70.50;27.10;;;;;;;20.12;24.73;98932.52;108142;1258;73625;-66
2023/03/04 09:08:47;;;;;;;63.70;25.40;;;;;;;20.13;24.50;98933.27;108112;1254;60589;-66
2023/03/04 09:11:16;;;;;;;70.40;28.40;;;;;;;19.41;25.19;98939.66;108146;1254;61556;-67
2023/03/04 09:13:44;;;;;;;73.30;28.30;;;;;;;19.66;24.98;98927.39;108148;1254;74771;-67
2023/03/04 09:16:14;;;;;;;63.40;27.50;;;;;;;19.74;25.07;98923.45;108127;1254;70414;-66
2023/03/04 09:18:42;;;;;;;69.10;27.30;;;;;;;19.83;24.81;98923.17;108055;1254;73565;-66
2023/03/04 09:21:10;;;;;;;72.30;28.80;;;;;;;19.83;24.66;98925.91;108116;1254;61135;-66
2023/03/04 09:23:39;;;;;;;62.80;23.60;;;;;;;19.89;24.67;98923.61;108144;1254;61431;-66
2023/03/04 09:26:33;;;;;;;58.30;22.50;;;;;;;19.57;24.91;98922.34;108183;1254;73894;-69
2023/03/04 09:29:02;;;;;;;76.40;29.30;;;;;;;19.91;24.68;98919.90;108095;1254;71343;-68
2023/03/04 09:31:30;;;;;;;71.90;28.60;;;;;;;19.53;25.10;98921.77;108126;1254;72729;-68
2023/03/04 09:34:02;;;;;;;63.60;26.70;;;;;;;19.91;24.69;98921.45;108065;1254;60492;-67
2023/03/04 09:36:30;;;;;;;65.10;28.10;;;;;;;19.78;24.97;98924.42;108173;1253;61532;-67
2023/03/04 09:39:06;;;;;;;75.80;27.60;;;;;;;20.19;24.53;98915.57;108163;1258;74726;-65
2023/03/04 09:41:46;;;;;;;65.90;27.00;;;;;;;20.30;24.38;98915.23;108118;1254;71566;-65
2023/03/04 09:44:27;;;;;;;63.20;26.00;;;;;;;20.82;23.83;98914.17;108192;1254;73890;-67
2023/03/04 09:46:57;;;;;;;;;;;;;;;20.22;24.28;98909.73;108182;1254;60045;-67
2023/03/04 09:49:25;;;;;;;69.00;28.00;;;;;;;20.30;24.26;98903.34;108112;1254;61289;-67
2023/03/04 09:51:55;;;;;;;58.90;25.10;;;;;;;20.07;24.49;98901.95;108168;1254;73850;-68
2023/03/04 09:54:40;;;;;;;65.50;26.90;;;;;;;20.25;24.25;98903.44;108141;1258;71549;-68
2023/03/04 09:57:14;;;;;;;61.90;25.70;;;;;;;20.35;23.93;98902.60;108146;1254;72998;-67
2023/03/04 09:59:47;;;;;;;60.10;24.30;;;;;;;19.37;24.53;98903.89;108129;1254;60565;-67
2023/03/04 10:02:25;;;;;;;65.30;26.00;;;;;;;19.18;24.71;98902.59;108098;1254;61493;-67
2023/03/04 10:04:54;;;;;;;61.70;26.30;;;;;;;19.70;24.07;98900.96;108195;1254;74542;-66
2023/03/04 10:07:26;;;;;;;63.00;25.70;;;;;;;19.80;23.86;98898.07;108091;1254;71551;-66
2023/03/04 10:10:12;;;;;;;62.90;24.60;;;;;;;19.87;23.88;98899.41;108099;1254;73496;-66
2023/03/04 10:12:43;;;;;;;58.10;23.00;;;;;;;19.50;23.99;98898.45;108071;1254;60582;-67
2023/03/04 10:15:32;;;;;;;58.70;23.50;;;;;;;19.64;24.00;98894.59;108209;1253;61503;-63
2023/03/04 10:18:05;;;;;;;59.80;25.00;;;;;;;20.28;23.48;98889.56;108119;1258;74797;-68
2023/03/04 10:20:51;;;;;;;54.90;22.70;;;;;;;20.28;23.26;98882.46;108129;1254;71358;-66
2023/03/04 10:23:26;;;;;;;59.10;25.00;;;;;;;20.13;23.42;98884.63;108142;1254;73622;-66
2023/03/04 10:25:56;;;;;;;57.10;22.40;;;;;;;20.33;23.27;98880.69;108174;1253;60462;-66
2023/03/04 10:28:31;;;;;;;57.70;25.60;;;;;;;20.38;23.23;98884.36;107978;1254;61267;-67
2023/03/04 10:31:18;;;;;;;59.20;24.00;;;;;;;20.30;23.23;98881.54;108086;1254;74733;-65
2023/03/04 10:33:47;;;;;;;58.00;25.60;;;;;;;20.59;22.96;98877.64;108143;1254;71574;-65
2023/03/04 10:36:30;;;;;;;59.30;24.70;;;;;;;20.03;23.43;98881.48;108175;1254;72689;-66
2023/03/04 10:39:17;;;;;;;59.50;26.00;;;;;;;19.95;23.51;98880.80;108110;1254;60653;-65
2023/03/04 10:42:00;;;;;;;57.80;22.90;;;;;;;19.68;23.73;98877.16;108150;1254;60370;-67
2023/03/04 10:44:30;;;;;;;55.00;21.60;;;;;;;19.83;23.64;98875.16;108123;1254;74639;-67
2023/03/04 10:46:59;;;;;;;58.00;22.30;;;;;;;19.33;24.02;98874.00;108185;1254;71274;-67
2023/03/04 10:49:29;;;;;;;50.90;19.90;;;;;;;18.93;24.44;98875.38;108128;1254;72892;-65
2023/03/04 10:52:02;;;;;;;48.30;22.00;;;;;;;18.68;24.67;98870.39;108028;1254;60500;-67
2023/03/04 10:54:50;;;;;;;52.70;22.60;;;;;;;18.74;24.40;98862.14;108130;1254;61549;-66
2023/03/04 10:57:27;;;;;;;55.20;23.80;;;;;;;18.83;24.31;98861.51;108165;1254;75073;-65
2023/03/04 11:00:19;;;;;;;49.50;21.80;;;;;;;18.54;24.32;98845.83;108196;1254;70786;-66
2023/03/04 11:02:48;;;;;;;51.50;20.70;;;;;;;18.51;24.62;98840.04;108152;1254;73920;-67
2023/03/04 11:05:21;;;;;;;47.90;18.80;;;;;;;19.02;24.20;98827.44;108068;1254;60603;-67
2023/03/04 11:07:51;;;;;;;50.50;19.00;;;;;;;18.58;24.46;98822.32;108255;1254;60351;-66
2023/03/04 11:10:51;;;;;;;44.60;18.50;;;;;;;19.24;23.91;98814.52;108136;1254;74108;-68
2023/03/04 11:13:24;;;;;;;45.50;21.50;;;;;;;20.38;23.01;98811.63;108121;1254;70575;-67
2023/03/04 11:15:58;;;;;;;49.30;19.20;;;;;;;20.89;22.32;98809.39;108145;1254;73568;-67
2023/03/04 11:18:46;;;;;;;38.90;16.90;;;;;;;20.80;22.25;98808.55;108153;1254;60599;-66
2023/03/04 11:21:21;;;;;;;44.60;17.00;;;;;;;21.04;21.98;98810.56;108202;1254;60357;-66
2023/03/04 11:23:52;;;;;;;40.80;17.80;;;;;;;20.91;21.85;98805.42;108150;1258;74874;-65
2023/03/04 11:26:45;;;;;;;44.70;20.80;;;;;;;21.36;21.48;98802.74;108204;1254;71238;-65
2023/03/04 11:29:18;;;;;;;37.80;18.50;;;;;;;21.71;21.06;98798.91;108174;1254;73495;-65